createdAt,value
2018-02-20T00:00:58.850Z,1020.37
2018-02-20T00:02:08.061Z,1020.36
2018-02-20T00:03:17.270Z,1020.36
2018-02-20T00:04:26.479Z,1020.32
2018-02-20T00:05:36.223Z,1020.33
2018-02-20T00:06:45.441Z,1020.36
2018-02-20T00:07:54.656Z,1020.36
2018-02-20T00:09:03.330Z,1020.41
2018-02-20T00:10:13.081Z,1020.39
2018-02-20T00:11:22.024Z,1020.38
2018-02-20T00:12:30.969Z,1020.38
2018-02-20T00:13:39.918Z,1020.36
2018-02-20T00:14:49.395Z,1020.38
2018-02-20T00:15:58.605Z,1020.4
2018-02-20T00:17:07.281Z,1020.38
2018-02-20T00:18:16.229Z,1020.38
2018-02-20T00:19:25.174Z,1020.35
2018-02-20T00:20:33.849Z,1020.35
2018-02-20T00:21:42.796Z,1020.38
2018-02-20T00:22:52.000Z,1020.36
2018-02-20T00:24:00.949Z,1020.36
2018-02-20T00:25:10.169Z,1020.37
2018-02-20T00:26:19.443Z,1020.35
2018-02-20T00:27:28.384Z,1020.29
2018-02-20T00:28:38.133Z,1020.31
2018-02-20T00:29:46.809Z,1020.31
2018-02-20T00:30:55.761Z,1020.29
2018-02-20T00:32:04.972Z,1020.3
2018-02-20T00:33:14.185Z,1020.31
2018-02-20T00:34:23.932Z,1020.28
2018-02-20T00:35:33.418Z,1020.34
2018-02-20T00:36:42.629Z,1020.33
2018-02-20T00:37:52.110Z,1020.32
2018-02-20T00:39:01.052Z,1020.32
2018-02-20T00:40:09.995Z,1020.33
2018-02-20T00:41:18.674Z,1020.35
2018-02-20T00:42:28.426Z,1020.34
2018-02-20T00:43:37.677Z,1020.34
2018-02-20T00:44:46.624Z,1020.36
2018-02-20T00:45:56.104Z,1020.36
2018-02-20T00:47:05.320Z,1020.35
2018-02-20T00:48:14.530Z,1020.36
2018-02-20T00:49:24.005Z,1020.36
2018-02-20T00:50:32.684Z,1020.38
2018-02-20T00:51:41.895Z,1020.32
2018-02-20T00:52:51.108Z,1020.35
2018-02-20T00:54:00.864Z,1020.38
2018-02-20T00:55:09.805Z,1020.37
2018-02-20T00:56:19.285Z,1020.35
2018-02-20T00:57:28.768Z,1020.36
2018-02-20T00:58:37.730Z,1020.39
2018-02-20T00:59:47.482Z,1020.38
2018-02-20T01:00:56.707Z,1020.34
2018-02-20T01:02:05.658Z,1020.36
2018-02-20T01:03:14.860Z,1020.36
2018-02-20T01:04:23.538Z,1020.37
2018-02-20T01:05:33.019Z,1020.39
2018-02-20T01:06:42.227Z,1020.34
2018-02-20T01:07:51.168Z,1020.35
2018-02-20T01:09:00.111Z,1020.34
2018-02-20T01:10:09.056Z,1020.35
2018-02-20T01:11:18.291Z,1020.37
2018-02-20T01:12:27.232Z,1020.4
2018-02-20T01:13:36.439Z,1020.4
2018-02-20T01:14:46.185Z,1020.43
2018-02-20T01:15:55.134Z,1020.43
2018-02-20T01:17:04.346Z,1020.4
2018-02-20T01:18:14.098Z,1020.4
2018-02-20T01:19:23.044Z,1020.4
2018-02-20T01:20:31.991Z,1020.38
2018-02-20T01:21:40.942Z,1020.4
2018-02-20T01:22:49.881Z,1020.39
2018-02-20T01:23:59.364Z,1020.41
2018-02-20T01:25:08.612Z,1020.4
2018-02-20T01:26:17.516Z,1020.37
2018-02-20T01:27:26.460Z,1020.4
2018-02-20T01:28:35.138Z,1020.41
2018-02-20T01:29:43.812Z,1020.36
2018-02-20T01:30:53.284Z,1020.37
2018-02-20T01:32:02.230Z,1020.34
2018-02-20T01:33:11.442Z,1020.4
2018-02-20T01:34:20.385Z,1020.35
2018-02-20T01:35:30.128Z,1020.37
2018-02-20T01:36:39.610Z,1020.36
2018-02-20T01:37:48.548Z,1020.34
2018-02-20T01:38:57.491Z,1020.35
2018-02-20T01:40:06.972Z,1020.34
2018-02-20T01:41:16.498Z,1020.36
2018-02-20T01:42:25.169Z,1020.37
2018-02-20T01:43:34.644Z,1020.4
2018-02-20T01:44:43.585Z,1020.36
2018-02-20T01:45:52.264Z,1020.34
2018-02-20T01:47:01.478Z,1020.36
2018-02-20T01:48:10.421Z,1020.34
2018-02-20T01:49:19.364Z,1020.38
2018-02-20T01:50:28.310Z,1020.38
2018-02-20T01:51:37.250Z,1020.3
2018-02-20T01:52:46.461Z,1020.31
2018-02-20T01:53:56.214Z,1020.3
2018-02-20T01:55:05.698Z,1020.29
2018-02-20T01:56:14.914Z,1020.34
2018-02-20T01:57:23.854Z,1020.35
2018-02-20T01:58:32.799Z,1020.37
2018-02-20T01:59:42.278Z,1020.38
2018-02-20T02:00:51.483Z,1020.37
2018-02-20T02:02:01.231Z,1020.34
2018-02-20T02:03:10.171Z,1020.38
2018-02-20T02:04:18.852Z,1020.34
2018-02-20T02:05:28.067Z,1020.31
2018-02-20T02:06:37.276Z,1020.34
2018-02-20T02:07:46.489Z,1020.35
2018-02-20T02:08:55.702Z,1020.34
2018-02-20T02:10:04.379Z,1020.35
2018-02-20T02:11:13.596Z,1020.39
2018-02-20T02:12:22.539Z,1020.37
2018-02-20T02:13:31.753Z,1020.4
2018-02-20T02:14:41.233Z,1020.36
2018-02-20T02:15:50.445Z,1020.4
2018-02-20T02:16:59.125Z,1020.38
2018-02-20T02:18:08.064Z,1020.4
2018-02-20T02:19:17.276Z,1020.39
2018-02-20T02:20:26.220Z,1020.39
2018-02-20T02:21:35.433Z,1020.39
2018-02-20T02:22:44.647Z,1020.39
2018-02-20T02:23:54.122Z,1020.41
2018-02-20T02:25:03.061Z,1020.41
2018-02-20T02:26:12.275Z,1020.42
2018-02-20T02:27:21.220Z,1020.44
2018-02-20T02:28:30.431Z,1020.45
2018-02-20T02:29:39.110Z,1020.45
2018-02-20T02:30:48.588Z,1020.47
2018-02-20T02:31:58.084Z,1020.47
2018-02-20T02:33:07.589Z,1020.48
2018-02-20T02:34:16.539Z,1020.55
2018-02-20T02:35:25.480Z,1020.53
2018-02-20T02:36:35.234Z,1020.53
2018-02-20T02:37:44.711Z,1020.5
2018-02-20T02:38:53.921Z,1020.54
2018-02-20T02:40:03.175Z,1020.54
2018-02-20T02:41:12.670Z,1020.54
2018-02-20T02:42:21.325Z,1020.5
2018-02-20T02:43:30.549Z,1020.57
2018-02-20T02:44:39.232Z,1020.55
2018-02-20T02:45:48.447Z,1020.53
2018-02-20T02:46:57.659Z,1020.56
2018-02-20T02:48:06.878Z,1020.57
2018-02-20T02:49:16.900Z,1020.57
2018-02-20T02:50:25.848Z,1020.58
2018-02-20T02:51:35.335Z,1020.56
2018-02-20T02:52:44.545Z,1020.56
2018-02-20T02:53:53.762Z,1020.61
2018-02-20T02:55:02.976Z,1020.62
2018-02-20T02:56:12.733Z,1020.62
2018-02-20T02:57:21.951Z,1020.63
2018-02-20T02:58:31.168Z,1020.68
2018-02-20T02:59:40.394Z,1020.67
2018-02-20T03:00:49.610Z,1020.63
2018-02-20T03:01:58.820Z,1020.65
2018-02-20T03:03:07.501Z,1020.63
2018-02-20T03:04:16.998Z,1020.62
2018-02-20T03:05:26.208Z,1020.62
2018-02-20T03:06:35.694Z,1020.62
2018-02-20T03:07:44.908Z,1020.61
2018-02-20T03:08:54.131Z,1020.59
2018-02-20T03:10:03.602Z,1020.63
2018-02-20T03:11:13.078Z,1020.62
2018-02-20T03:12:22.024Z,1020.62
2018-02-20T03:13:30.703Z,1020.64
2018-02-20T03:14:39.378Z,1020.63
2018-02-20T03:15:48.593Z,1020.64
2018-02-20T03:16:57.807Z,1020.68
2018-02-20T03:18:06.753Z,1020.66
2018-02-20T03:19:15.693Z,1020.69
2018-02-20T03:20:24.375Z,1020.68
2018-02-20T03:21:33.585Z,1020.7
2018-02-20T03:22:42.796Z,1020.71
2018-02-20T03:23:52.285Z,1020.68
2018-02-20T03:25:02.028Z,1020.69
2018-02-20T03:26:10.975Z,1020.67
2018-02-20T03:27:20.459Z,1020.67
2018-02-20T03:28:29.136Z,1020.62
2018-02-20T03:29:38.353Z,1020.64
2018-02-20T03:30:47.294Z,1020.6
2018-02-20T03:31:56.516Z,1020.65
2018-02-20T03:33:05.735Z,1020.58
2018-02-20T03:34:14.949Z,1020.6
2018-02-20T03:35:23.894Z,1020.6
2018-02-20T03:36:33.375Z,1020.61
2018-02-20T03:37:42.852Z,1020.61
2018-02-20T03:38:51.526Z,1020.56
2018-02-20T03:40:00.474Z,1020.56
2018-02-20T03:41:09.420Z,1020.58
2018-02-20T03:42:18.370Z,1020.57
2018-02-20T03:43:27.587Z,1020.58
2018-02-20T03:44:36.266Z,1020.57
2018-02-20T03:45:44.942Z,1020.61
2018-02-20T03:46:54.159Z,1020.61
2018-02-20T03:48:03.917Z,1020.57
2018-02-20T03:49:12.595Z,1020.6
2018-02-20T03:50:21.276Z,1020.57
2018-02-20T03:51:30.494Z,1020.62
2018-02-20T03:52:39.441Z,1020.62
2018-02-20T03:53:49.204Z,1020.64
2018-02-20T03:54:58.969Z,1020.63
2018-02-20T03:56:08.457Z,1020.66
2018-02-20T03:57:17.140Z,1020.65
2018-02-20T03:58:26.627Z,1020.66
2018-02-20T03:59:35.843Z,1020.65
2018-02-20T04:00:44.802Z,1020.66
2018-02-20T04:01:53.758Z,1020.67
2018-02-20T04:03:02.982Z,1020.69
2018-02-20T04:04:11.935Z,1020.72
2018-02-20T04:05:20.886Z,1020.67
2018-02-20T04:06:29.842Z,1020.69
2018-02-20T04:07:38.794Z,1020.66
2018-02-20T04:08:47.481Z,1020.68
2018-02-20T04:09:56.700Z,1020.7
2018-02-20T04:11:05.659Z,1020.67
2018-02-20T04:12:14.922Z,1020.7
2018-02-20T04:13:24.142Z,1020.71
2018-02-20T04:14:32.827Z,1020.69
2018-02-20T04:15:41.781Z,1020.7
2018-02-20T04:16:51.004Z,1020.73
2018-02-20T04:18:00.488Z,1020.73
2018-02-20T04:19:09.707Z,1020.71
2018-02-20T04:20:18.935Z,1020.71
2018-02-20T04:21:27.898Z,1020.76
2018-02-20T04:22:37.120Z,1020.76
2018-02-20T04:23:46.073Z,1020.71
2018-02-20T04:24:55.832Z,1020.72
2018-02-20T04:26:04.785Z,1020.73
2018-02-20T04:27:14.010Z,1020.72
2018-02-20T04:28:22.960Z,1020.72
2018-02-20T04:29:32.180Z,1020.71
2018-02-20T04:30:41.136Z,1020.7
2018-02-20T04:31:50.095Z,1020.69
2018-02-20T04:32:59.600Z,1020.7
2018-02-20T04:34:08.302Z,1020.69
2018-02-20T04:35:17.544Z,1020.66
2018-02-20T04:36:26.512Z,1020.67
2018-02-20T04:37:35.478Z,1020.69
2018-02-20T04:38:44.183Z,1020.71
2018-02-20T04:39:53.150Z,1020.7
2018-02-20T04:41:02.389Z,1020.71
2018-02-20T04:42:11.357Z,1020.68
2018-02-20T04:43:21.412Z,1020.7
2018-02-20T04:44:30.376Z,1020.64
2018-02-20T04:45:39.609Z,1020.7
2018-02-20T04:46:48.847Z,1020.65
2018-02-20T04:47:58.086Z,1020.67
2018-02-20T04:49:06.783Z,1020.63
2018-02-20T04:50:15.749Z,1020.66
2018-02-20T04:51:25.262Z,1020.65
2018-02-20T04:52:34.767Z,1020.72
2018-02-20T04:53:43.736Z,1020.71
2018-02-20T04:54:52.700Z,1020.74
2018-02-20T04:56:01.665Z,1020.68
2018-02-20T04:57:10.898Z,1020.72
2018-02-20T04:58:20.136Z,1020.72
2018-02-20T04:59:29.099Z,1020.69
2018-02-20T05:00:38.346Z,1020.66
2018-02-20T05:01:47.900Z,1020.64
2018-02-20T05:02:57.142Z,1020.65
2018-02-20T05:04:06.651Z,1020.57
2018-02-20T05:05:15.618Z,1020.6
2018-02-20T05:06:24.586Z,1020.61
2018-02-20T05:07:33.548Z,1020.57
2018-02-20T05:08:42.515Z,1020.57
2018-02-20T05:09:51.481Z,1020.57
2018-02-20T05:11:00.462Z,1020.62
2018-02-20T05:12:09.969Z,1020.61
2018-02-20T05:13:19.467Z,1020.59
2018-02-20T05:14:28.976Z,1020.64
2018-02-20T05:15:38.218Z,1020.57
2018-02-20T05:16:47.729Z,1020.55
2018-02-20T05:17:56.697Z,1020.53
2018-02-20T05:19:06.202Z,1020.55
2018-02-20T05:20:15.173Z,1020.56
2018-02-20T05:21:24.429Z,1020.58
2018-02-20T05:22:33.937Z,1020.6
2018-02-20T05:23:43.174Z,1020.62
2018-02-20T05:24:52.419Z,1020.62
2018-02-20T05:26:01.660Z,1020.62
2018-02-20T05:27:10.622Z,1020.63
2018-02-20T05:28:19.585Z,1020.62
2018-02-20T05:29:28.281Z,1020.63
2018-02-20T05:30:37.792Z,1020.61
2018-02-20T05:31:47.026Z,1020.63
2018-02-20T05:32:55.990Z,1020.6
2018-02-20T05:34:05.499Z,1020.64
2018-02-20T05:35:14.466Z,1020.63
2018-02-20T05:36:23.434Z,1020.64
2018-02-20T05:37:33.208Z,1020.65
2018-02-20T05:38:42.183Z,1020.64
2018-02-20T05:39:51.443Z,1020.63
2018-02-20T05:41:00.679Z,1020.61
2018-02-20T05:42:09.646Z,1020.61
2018-02-20T05:43:18.615Z,1020.58
2018-02-20T05:44:27.585Z,1020.6
2018-02-20T05:45:36.822Z,1020.6
2018-02-20T05:46:45.795Z,1020.6
2018-02-20T05:47:55.032Z,1020.63
2018-02-20T05:49:04.534Z,1020.63
2018-02-20T05:50:13.768Z,1020.63
2018-02-20T05:51:23.009Z,1020.6
2018-02-20T05:52:32.291Z,1020.63
2018-02-20T05:53:41.531Z,1020.66
2018-02-20T05:54:50.225Z,1020.66
2018-02-20T05:55:59.193Z,1020.64
2018-02-20T05:57:08.427Z,1020.61
2018-02-20T05:58:17.665Z,1020.65
2018-02-20T05:59:26.364Z,1020.62
2018-02-20T06:00:35.337Z,1020.65
2018-02-20T06:01:44.850Z,1020.65
2018-02-20T06:02:54.094Z,1020.64
2018-02-20T06:04:03.327Z,1020.65
2018-02-20T06:05:12.288Z,1020.62
2018-02-20T06:06:21.790Z,1020.64
2018-02-20T06:07:30.759Z,1020.66
2018-02-20T06:08:39.726Z,1020.64
2018-02-20T06:09:48.967Z,1020.7
2018-02-20T06:10:58.477Z,1020.68
2018-02-20T06:12:07.450Z,1020.68
2018-02-20T06:13:16.414Z,1020.7
2018-02-20T06:14:25.378Z,1020.74
2018-02-20T06:15:34.614Z,1020.77
2018-02-20T06:16:44.117Z,1020.74
2018-02-20T06:17:53.388Z,1020.78
2018-02-20T06:19:02.632Z,1020.77
2018-02-20T06:20:11.872Z,1020.75
2018-02-20T06:21:21.380Z,1020.73
2018-02-20T06:22:30.616Z,1020.75
2018-02-20T06:23:39.850Z,1020.78
2018-02-20T06:24:48.816Z,1020.77
2018-02-20T06:25:58.055Z,1020.79
2018-02-20T06:27:07.022Z,1020.78
2018-02-20T06:28:15.988Z,1020.86
2018-02-20T06:29:24.689Z,1020.8
2018-02-20T06:30:33.655Z,1020.81
2018-02-20T06:31:42.622Z,1020.84
2018-02-20T06:32:52.125Z,1020.86
2018-02-20T06:34:01.362Z,1020.87
2018-02-20T06:35:10.057Z,1020.91
2018-02-20T06:36:19.303Z,1020.87
2018-02-20T06:37:29.078Z,1020.88
2018-02-20T06:38:38.578Z,1020.91
2018-02-20T06:39:48.088Z,1020.93
2018-02-20T06:40:56.791Z,1020.93
2018-02-20T06:42:05.756Z,1020.94
2018-02-20T06:43:15.264Z,1020.92
2018-02-20T06:44:24.500Z,1020.92
2018-02-20T06:45:33.738Z,1020.88
2018-02-20T06:46:42.439Z,1020.88
2018-02-20T06:47:51.675Z,1020.9
2018-02-20T06:49:00.646Z,1020.96
2018-02-20T06:50:09.886Z,1020.9
2018-02-20T06:51:19.126Z,1020.85
2018-02-20T06:52:28.371Z,1020.81
2018-02-20T06:53:37.071Z,1020.85
2018-02-20T06:54:45.769Z,1020.86
2018-02-20T06:55:55.273Z,1020.8
2018-02-20T06:57:04.773Z,1020.85
2018-02-20T06:58:14.283Z,1020.83
2018-02-20T06:59:23.522Z,1020.82
2018-02-20T07:00:32.760Z,1020.82
2018-02-20T07:01:42.273Z,1020.86
2018-02-20T07:02:51.570Z,1020.81
2018-02-20T07:04:00.559Z,1020.76
2018-02-20T07:05:10.062Z,1020.78
2018-02-20T07:06:19.295Z,1020.82
2018-02-20T07:07:28.795Z,1020.83
2018-02-20T07:08:37.492Z,1020.83
2018-02-20T07:09:46.190Z,1020.84
2018-02-20T07:10:55.425Z,1020.89
2018-02-20T07:12:04.710Z,1020.86
2018-02-20T07:13:14.497Z,1020.87
2018-02-20T07:14:23.738Z,1020.88
2018-02-20T07:15:32.703Z,1020.91
2018-02-20T07:16:41.937Z,1020.94
2018-02-20T07:17:51.173Z,1020.96
2018-02-20T07:19:00.416Z,1020.98
2018-02-20T07:20:09.382Z,1021
2018-02-20T07:21:18.615Z,1020.94
2018-02-20T07:22:27.316Z,1021.01
2018-02-20T07:23:36.014Z,1021.01
2018-02-20T07:24:45.248Z,1020.99
2018-02-20T07:25:54.489Z,1020.97
2018-02-20T07:27:04.064Z,1020.94
2018-02-20T07:28:13.297Z,1021.01
2018-02-20T07:29:22.803Z,1020.98
2018-02-20T07:30:32.037Z,1020.98
2018-02-20T07:31:41.001Z,1021.02
2018-02-20T07:32:50.777Z,1021.01
2018-02-20T07:34:00.286Z,1021.06
2018-02-20T07:35:09.527Z,1021.01
2018-02-20T07:36:18.498Z,1021.01
2018-02-20T07:37:27.468Z,1021.08
2018-02-20T07:38:36.437Z,1021.06
2018-02-20T07:39:45.416Z,1021.07
2018-02-20T07:40:54.119Z,1021.03
2018-02-20T07:42:03.624Z,1021.06
2018-02-20T07:43:12.869Z,1021.08
2018-02-20T07:44:21.570Z,1021.13
2018-02-20T07:45:31.082Z,1021.13
2018-02-20T07:46:40.057Z,1021.12
2018-02-20T07:47:49.863Z,1021.14
2018-02-20T07:48:58.559Z,1021.18
2018-02-20T07:50:07.580Z,1021.18
2018-02-20T07:51:16.786Z,1021.16
2018-02-20T07:52:26.021Z,1021.17
2018-02-20T07:53:35.261Z,1021.15
2018-02-20T07:54:44.769Z,1021.14
2018-02-20T07:55:53.735Z,1021.17
2018-02-20T07:57:02.700Z,1021.09
2018-02-20T07:58:11.938Z,1021.1
2018-02-20T07:59:21.222Z,1021.09
2018-02-20T08:00:29.918Z,1021.11
2018-02-20T08:01:39.154Z,1021.05
2018-02-20T08:02:48.388Z,1021.08
2018-02-20T08:03:57.628Z,1021.09
2018-02-20T08:05:06.865Z,1021.09
2018-02-20T08:06:16.134Z,1021.11
2018-02-20T08:07:25.095Z,1021.09
2018-02-20T08:08:34.072Z,1021.12
2018-02-20T08:09:43.311Z,1021.15
2018-02-20T08:10:52.314Z,1021.14
2018-02-20T08:12:01.616Z,1021.22
2018-02-20T08:13:10.582Z,1021.22
2018-02-20T08:14:19.550Z,1021.22
2018-02-20T08:15:28.515Z,1021.22
2018-02-20T08:16:37.483Z,1021.22
2018-02-20T08:17:46.983Z,1021.24
2018-02-20T08:18:55.684Z,1021.23
2018-02-20T08:20:04.941Z,1021.24
2018-02-20T08:21:14.156Z,1021.25
2018-02-20T08:22:22.853Z,1021.24
2018-02-20T08:23:31.550Z,1021.28
2018-02-20T08:24:40.787Z,1021.28
2018-02-20T08:25:50.025Z,1021.27
2018-02-20T08:26:58.997Z,1021.28
2018-02-20T08:28:08.229Z,1021.3
2018-02-20T08:29:17.196Z,1021.28
2018-02-20T08:30:26.435Z,1021.31
2018-02-20T08:31:35.396Z,1021.32
2018-02-20T08:32:44.629Z,1021.3
2018-02-20T08:33:53.866Z,1021.33
2018-02-20T08:35:02.834Z,1021.33
2018-02-20T08:36:11.802Z,1021.3
2018-02-20T08:37:20.769Z,1021.29
2018-02-20T08:38:30.008Z,1021.33
2018-02-20T08:39:38.972Z,1021.32
2018-02-20T08:40:47.939Z,1021.31
2018-02-20T08:41:57.234Z,1021.3
2018-02-20T08:43:06.431Z,1021.3
2018-02-20T08:44:15.671Z,1021.35
2018-02-20T08:45:25.183Z,1021.29
2018-02-20T08:46:34.421Z,1021.3
2018-02-20T08:47:43.119Z,1021.31
2018-02-20T08:48:52.089Z,1021.32
2018-02-20T08:50:01.591Z,1021.31
2018-02-20T08:51:10.556Z,1021.34
2018-02-20T08:52:19.530Z,1021.32
2018-02-20T08:53:28.500Z,1021.28
2018-02-20T08:54:37.747Z,1021.28
2018-02-20T08:55:46.715Z,1021.3
2018-02-20T08:56:55.681Z,1021.32
2018-02-20T08:58:04.653Z,1021.31
2018-02-20T08:59:13.897Z,1021.3
2018-02-20T09:00:22.867Z,1021.3
2018-02-20T09:01:32.106Z,1021.33
2018-02-20T09:02:40.806Z,1021.27
2018-02-20T09:03:49.817Z,1021.24
2018-02-20T09:04:58.794Z,1021.23
2018-02-20T09:06:08.075Z,1021.24
2018-02-20T09:07:17.042Z,1021.23
2018-02-20T09:08:26.277Z,1021.22
2018-02-20T09:09:35.244Z,1021.25
2018-02-20T09:10:44.214Z,1021.24
2018-02-20T09:11:53.176Z,1021.27
2018-02-20T09:13:02.412Z,1021.29
2018-02-20T09:14:11.402Z,1021.24
2018-02-20T09:15:20.368Z,1021.25
2018-02-20T09:16:29.331Z,1021.27
2018-02-20T09:17:38.040Z,1021.25
2018-02-20T09:18:47.275Z,1021.21
2018-02-20T09:19:56.243Z,1021.19
2018-02-20T09:21:06.020Z,1021.2
2018-02-20T09:22:14.991Z,1021.2
2018-02-20T09:23:24.222Z,1021.22
2018-02-20T09:24:33.192Z,1021.21
2018-02-20T09:25:42.160Z,1021.22
2018-02-20T09:26:51.663Z,1021.29
2018-02-20T09:28:00.897Z,1021.31
2018-02-20T09:29:10.140Z,1021.34
2018-02-20T09:30:19.112Z,1021.35
2018-02-20T09:31:28.082Z,1021.34
2018-02-20T09:32:37.314Z,1021.35
2018-02-20T09:33:46.279Z,1021.35
2018-02-20T09:34:55.782Z,1021.37
2018-02-20T09:36:05.022Z,1021.36
2018-02-20T09:37:14.260Z,1021.32
2018-02-20T09:38:23.494Z,1021.38
2018-02-20T09:39:32.727Z,1021.39
2018-02-20T09:40:41.427Z,1021.42
2018-02-20T09:41:50.394Z,1021.43
2018-02-20T09:42:59.365Z,1021.45
2018-02-20T09:44:08.601Z,1021.48
2018-02-20T09:45:17.837Z,1021.47
2018-02-20T09:46:27.075Z,1021.48
2018-02-20T09:47:36.311Z,1021.54
2018-02-20T09:48:45.549Z,1021.56
2018-02-20T09:49:54.513Z,1021.55
2018-02-20T09:51:03.478Z,1021.59
2018-02-20T09:52:12.986Z,1021.59
2018-02-20T09:53:21.687Z,1021.6
2018-02-20T09:54:30.654Z,1021.55
2018-02-20T09:55:39.633Z,1021.61
2018-02-20T09:56:48.861Z,1021.57
2018-02-20T09:57:58.104Z,1021.55
2018-02-20T09:59:07.074Z,1021.56
2018-02-20T10:00:16.317Z,1021.53
2018-02-20T10:01:25.285Z,1021.5
2018-02-20T10:02:34.522Z,1021.51
2018-02-20T10:03:44.043Z,1021.53
2018-02-20T10:04:53.288Z,1021.57
2018-02-20T10:06:01.988Z,1021.54
2018-02-20T10:07:10.951Z,1021.54
2018-02-20T10:08:20.187Z,1021.6
2018-02-20T10:09:29.433Z,1021.6
2018-02-20T10:10:38.667Z,1021.61
2018-02-20T10:11:47.639Z,1021.62
2018-02-20T10:12:57.419Z,1021.59
2018-02-20T10:14:06.122Z,1021.59
2018-02-20T10:15:15.633Z,1021.61
2018-02-20T10:16:24.867Z,1021.65
2018-02-20T10:17:34.380Z,1021.67
2018-02-20T10:18:43.347Z,1021.69
2018-02-20T10:19:52.580Z,1021.72
2018-02-20T10:21:01.551Z,1021.73
2018-02-20T10:22:10.514Z,1021.74
2018-02-20T10:23:19.814Z,1021.78
2018-02-20T10:24:28.995Z,1021.78
2018-02-20T10:25:38.231Z,1021.77
2018-02-20T10:26:47.473Z,1021.8
2018-02-20T10:27:56.985Z,1021.81
2018-02-20T10:29:05.683Z,1021.79
2018-02-20T10:30:14.380Z,1021.81
2018-02-20T10:31:23.612Z,1021.8
2018-02-20T10:32:32.577Z,1021.81
2018-02-20T10:33:41.812Z,1021.82
2018-02-20T10:34:50.778Z,1021.85
2018-02-20T10:35:59.477Z,1021.85
2018-02-20T10:37:08.714Z,1021.9
2018-02-20T10:38:17.683Z,1021.87
2018-02-20T10:39:26.381Z,1021.87
2018-02-20T10:40:35.079Z,1021.89
2018-02-20T10:41:44.050Z,1021.89
2018-02-20T10:42:53.550Z,1021.87
2018-02-20T10:44:02.250Z,1021.97
2018-02-20T10:45:12.028Z,1021.92
2018-02-20T10:46:21.276Z,1021.95
2018-02-20T10:47:30.513Z,1021.92
2018-02-20T10:48:39.483Z,1021.95
2018-02-20T10:49:49.258Z,1021.99
2018-02-20T10:50:58.523Z,1021.99
2018-02-20T10:52:08.027Z,1021.95
2018-02-20T10:53:16.997Z,1021.99
2018-02-20T10:54:26.236Z,1021.95
2018-02-20T10:55:35.479Z,1021.98
2018-02-20T10:56:44.981Z,1021.97
2018-02-20T10:57:54.490Z,1021.97
2018-02-20T10:59:03.995Z,1022.03
2018-02-20T11:00:13.505Z,1022.03
2018-02-20T11:01:22.474Z,1022.02
2018-02-20T11:02:31.713Z,1022.03
2018-02-20T11:03:40.682Z,1022.03
2018-02-20T11:04:49.921Z,1021.99
2018-02-20T11:05:59.432Z,1022.04
2018-02-20T11:07:08.463Z,1022.06
2018-02-20T11:08:17.429Z,1022.04
2018-02-20T11:09:26.400Z,1022.05
2018-02-20T11:10:36.174Z,1022.09
2018-02-20T11:11:45.424Z,1022.08
2018-02-20T11:12:54.392Z,1022.07
2018-02-20T11:14:03.628Z,1022.09
2018-02-20T11:15:12.598Z,1022.09
2018-02-20T11:16:21.567Z,1022.08
2018-02-20T11:17:30.535Z,1022.08
2018-02-20T11:18:39.508Z,1022.08
2018-02-20T11:19:48.204Z,1022.04
2018-02-20T11:20:57.172Z,1022.05
2018-02-20T11:22:06.685Z,1022.06
2018-02-20T11:23:15.384Z,1022.06
2018-02-20T11:24:24.086Z,1022.08
2018-02-20T11:25:33.588Z,1022.08
2018-02-20T11:26:42.919Z,1022.11
2018-02-20T11:27:52.161Z,1022.09
2018-02-20T11:29:00.858Z,1022.08
2018-02-20T11:30:09.560Z,1022.08
2018-02-20T11:31:18.800Z,1022.06
2018-02-20T11:32:28.037Z,1022.05
2018-02-20T11:33:37.542Z,1022.07
2018-02-20T11:34:46.512Z,1022.07
2018-02-20T11:35:55.749Z,1022.04
2018-02-20T11:37:05.252Z,1022.07
2018-02-20T11:38:13.949Z,1022.07
2018-02-20T11:39:23.192Z,1022.01
2018-02-20T11:40:31.904Z,1022.01
2018-02-20T11:41:40.609Z,1022.04
2018-02-20T11:42:49.315Z,1022.04
2018-02-20T11:43:58.552Z,1022.01
2018-02-20T11:45:07.798Z,1022.02
2018-02-20T11:46:16.762Z,1022.04
2018-02-20T11:47:25.726Z,1022.07
2018-02-20T11:48:34.698Z,1022.01
2018-02-20T11:49:43.670Z,1022.03
2018-02-20T11:50:53.180Z,1022.04
2018-02-20T11:52:02.687Z,1022.06
2018-02-20T11:53:11.388Z,1022.02
2018-02-20T11:54:20.627Z,1021.99
2018-02-20T11:55:29.327Z,1022
2018-02-20T11:56:38.294Z,1022.01
2018-02-20T11:57:47.532Z,1022.03
2018-02-20T11:58:57.034Z,1022
2018-02-20T12:00:06.269Z,1021.99
2018-02-20T12:01:15.239Z,1022.01
2018-02-20T12:02:24.529Z,1021.98
2018-02-20T12:03:33.491Z,1021.99
2018-02-20T12:04:42.736Z,1022
2018-02-20T12:05:51.710Z,1021.99
2018-02-20T12:07:01.492Z,1022.03
2018-02-20T12:08:10.519Z,1021.98
2018-02-20T12:09:20.299Z,1021.98
2018-02-20T12:10:29.270Z,1021.95
2018-02-20T12:11:38.234Z,1021.96
2018-02-20T12:12:47.467Z,1021.99
2018-02-20T12:13:57.039Z,1022
2018-02-20T12:15:06.293Z,1021.95
2018-02-20T12:16:15.803Z,1021.95
2018-02-20T12:17:25.044Z,1022.01
2018-02-20T12:18:34.013Z,1022.03
2018-02-20T12:19:42.712Z,1022.01
2018-02-20T12:20:52.491Z,1022.02
2018-02-20T12:22:01.460Z,1022.01
2018-02-20T12:23:10.697Z,1022.03
2018-02-20T12:24:19.396Z,1022.02
2018-02-20T12:25:28.636Z,1022.07
2018-02-20T12:26:38.146Z,1022.09
2018-02-20T12:27:47.386Z,1022.06
2018-02-20T12:28:56.890Z,1022.03
2018-02-20T12:30:05.866Z,1022.02
2018-02-20T12:31:14.835Z,1022.07
2018-02-20T12:32:24.076Z,1022.08
2018-02-20T12:33:32.774Z,1022.11
2018-02-20T12:34:41.763Z,1022.1
2018-02-20T12:35:51.024Z,1022.07
2018-02-20T12:37:00.510Z,1022.07
2018-02-20T12:38:10.561Z,1022.05
2018-02-20T12:39:19.259Z,1022.05
2018-02-20T12:40:28.230Z,1022.05
2018-02-20T12:41:37.470Z,1022.04
2018-02-20T12:42:46.491Z,1022.06
2018-02-20T12:43:56.079Z,1022.05
2018-02-20T12:45:05.582Z,1022.05
2018-02-20T12:46:15.089Z,1022.02
2018-02-20T12:47:24.328Z,1022.06
2018-02-20T12:48:33.298Z,1022.03
2018-02-20T12:49:42.268Z,1022.02
2018-02-20T12:50:51.503Z,1022.06
2018-02-20T12:52:00.204Z,1022.05
2018-02-20T12:53:09.175Z,1022.07
2018-02-20T12:54:18.687Z,1022.12
2018-02-20T12:55:27.923Z,1022.07
2018-02-20T12:56:37.432Z,1022.12
2018-02-20T12:57:46.677Z,1022.11
2018-02-20T12:58:55.376Z,1022.07
2018-02-20T13:00:04.342Z,1022.08
2018-02-20T13:01:13.311Z,1022.05
2018-02-20T13:02:22.280Z,1022.07
2018-02-20T13:03:31.250Z,1022.08
2018-02-20T13:04:40.486Z,1022.11
2018-02-20T13:05:49.725Z,1022.06
2018-02-20T13:06:58.428Z,1022.08
2018-02-20T13:08:07.663Z,1022.11
2018-02-20T13:09:16.360Z,1022.11
2018-02-20T13:10:25.864Z,1022.02
2018-02-20T13:11:34.561Z,1022.05
2018-02-20T13:12:43.261Z,1022.06
2018-02-20T13:13:52.235Z,1022.01
2018-02-20T13:15:01.203Z,1022.07
2018-02-20T13:16:10.174Z,1021.99
2018-02-20T13:17:19.141Z,1022.01
2018-02-20T13:18:28.108Z,1021.98
2018-02-20T13:19:37.074Z,1022.04
2018-02-20T13:20:46.309Z,1022.02
2018-02-20T13:21:55.818Z,1022.02
2018-02-20T13:23:04.527Z,1021.99
2018-02-20T13:24:13.492Z,1022.03
2018-02-20T13:25:22.734Z,1022.05
2018-02-20T13:26:31.436Z,1021.99
2018-02-20T13:27:40.424Z,1022.01
2018-02-20T13:28:49.380Z,1021.98
2018-02-20T13:29:58.348Z,1022.03
2018-02-20T13:31:07.052Z,1022.02
2018-02-20T13:32:16.021Z,1022.01
2018-02-20T13:33:24.716Z,1022.02
2018-02-20T13:34:34.221Z,1022.02
2018-02-20T13:35:42.924Z,1022.03
2018-02-20T13:36:52.162Z,1022.01
2018-02-20T13:38:01.397Z,1021.99
2018-02-20T13:39:10.908Z,1022.03
2018-02-20T13:40:20.429Z,1022.03
2018-02-20T13:41:29.666Z,1022.04
2018-02-20T13:42:38.904Z,1022.07
2018-02-20T13:43:48.404Z,1022.06
2018-02-20T13:44:57.394Z,1022.08
2018-02-20T13:46:06.633Z,1022.11
2018-02-20T13:47:15.332Z,1022.11
2018-02-20T13:48:24.029Z,1022.11
2018-02-20T13:49:33.270Z,1022.06
2018-02-20T13:50:42.506Z,1022.1
2018-02-20T13:51:51.480Z,1022.14
2018-02-20T13:53:00.450Z,1022.08
2018-02-20T13:54:09.422Z,1022.11
2018-02-20T13:55:18.932Z,1022.1
2018-02-20T13:56:28.435Z,1022.11
2018-02-20T13:57:37.667Z,1022.09
2018-02-20T13:58:46.638Z,1022.1
2018-02-20T13:59:55.882Z,1022.05